sim
Sign-in with your pilot id or email,
or register
Callsign
Passwort

Schedule Details

Flight Number: GEC8472 (1C)
Departure: Frankfurt Airport (EDDF) at 19:25
Arrival: Mumbai Chhatrapati Shivaji International Airport (VABB) at 03:25
Route: Lufthansa Cargo Cargo Schedule. Enter filed route here before submitting Pirep.

Weather Information
Getting current METAR information for EDDF 100020Z 29009KT 270V330 9999 FEW023 05/01 Q1020 NOSIG
Getting current METAR information for VABB 100000Z 12003KT 2500 HZ NSC 26/20 Q1012 NOSIG

Schedule Frequency

Route Map